createdAt,value
2023-03-30T00:00:30.798Z,11.23
2023-03-30T00:03:19.472Z,10.00
2023-03-30T00:06:08.818Z,12.73
2023-03-30T00:08:57.894Z,12.02
2023-03-30T00:11:45.425Z,7.03
2023-03-30T00:14:31.609Z,9.90
2023-03-30T00:17:18.567Z,13.30
2023-03-30T00:20:10.649Z,10.23
2023-03-30T00:22:58.200Z,8.60
2023-03-30T00:25:45.074Z,13.43
2023-03-30T00:28:32.343Z,10.40
2023-03-30T00:31:19.323Z,8.82
2023-03-30T00:34:05.654Z,11.15
2023-03-30T00:36:53.406Z,8.55
2023-03-30T00:39:41.431Z,10.10
2023-03-30T00:42:27.619Z,10.23
2023-03-30T00:45:22.106Z,7.50
2023-03-30T00:48:12.330Z,8.80
2023-03-30T00:51:02.382Z,6.53
2023-03-30T00:53:52.188Z,9.18
2023-03-30T00:56:39.966Z,6.23
2023-03-30T00:59:26.504Z,7.82
2023-03-30T01:02:13.015Z,5.35
2023-03-30T01:04:59.354Z,4.25
2023-03-30T01:07:46.489Z,5.97
2023-03-30T01:10:33.201Z,7.40
2023-03-30T01:13:21.697Z,10.20
2023-03-30T01:16:18.997Z,5.20
2023-03-30T01:19:29.337Z,7.72
2023-03-30T01:22:44.998Z,7.00
2023-03-30T01:25:47.841Z,5.93
2023-03-30T01:28:46.821Z,3.90
2023-03-30T01:31:50.252Z,4.72
2023-03-30T01:34:52.605Z,5.18
2023-03-30T01:38:08.449Z,7.95
2023-03-30T01:41:05.091Z,7.18
2023-03-30T01:43:56.824Z,6.85
2023-03-30T01:46:48.985Z,8.57
2023-03-30T01:49:42.891Z,6.70
2023-03-30T01:52:36.948Z,3.83
2023-03-30T01:55:27.005Z,5.78
2023-03-30T01:58:22.084Z,6.57
2023-03-30T02:01:10.354Z,7.50
2023-03-30T02:03:59.890Z,6.85
2023-03-30T02:06:50.910Z,5.15
2023-03-30T02:09:43.328Z,5.15
2023-03-30T02:12:30.906Z,7.97
2023-03-30T02:15:20.466Z,6.30
2023-03-30T02:18:06.771Z,7.20
2023-03-30T02:20:53.777Z,7.32
2023-03-30T02:23:45.271Z,5.03
2023-03-30T02:26:32.855Z,9.82
2023-03-30T02:29:21.219Z,3.75
2023-03-30T02:32:18.142Z,5.88
2023-03-30T02:35:22.183Z,5.25
2023-03-30T02:38:41.642Z,5.22
2023-03-30T02:42:01.404Z,9.20
2023-03-30T02:44:58.152Z,3.50
2023-03-30T02:47:58.174Z,4.00
2023-03-30T02:50:51.596Z,6.85
2023-03-30T02:54:06.262Z,9.70
2023-03-30T02:57:15.687Z,5.20
2023-03-30T03:00:10.636Z,4.93
2023-03-30T03:03:05.749Z,4.70
2023-03-30T03:05:54.723Z,5.03
2023-03-30T03:08:49.491Z,6.55
2023-03-30T03:11:41.920Z,3.53
2023-03-30T03:14:29.723Z,6.88
2023-03-30T03:17:22.140Z,7.20
2023-03-30T03:20:11.292Z,3.97
2023-03-30T03:22:57.922Z,5.53
2023-03-30T03:25:44.501Z,6.30
2023-03-30T03:28:32.698Z,3.88
2023-03-30T03:31:27.122Z,6.05
2023-03-30T03:34:13.816Z,3.92
2023-03-30T03:37:27.630Z,6.72
2023-03-30T03:40:14.737Z,4.03
2023-03-30T03:43:01.073Z,5.13
2023-03-30T03:45:47.902Z,5.38
2023-03-30T03:48:34.470Z,7.38
2023-03-30T03:51:21.093Z,6.50
2023-03-30T03:54:09.030Z,5.45
2023-03-30T03:56:55.808Z,6.82
2023-03-30T03:59:42.773Z,4.50
2023-03-30T04:02:29.306Z,7.70
2023-03-30T04:05:16.114Z,13.73
2023-03-30T04:08:02.820Z,3.28
2023-03-30T04:10:50.604Z,4.22
2023-03-30T04:13:43.567Z,3.17
2023-03-30T04:16:59.078Z,6.15
2023-03-30T04:19:59.012Z,3.92
2023-03-30T04:23:02.749Z,6.55
2023-03-30T04:26:22.435Z,4.00
2023-03-30T04:29:10.149Z,6.78
2023-03-30T04:32:21.115Z,3.97
2023-03-30T04:35:34.143Z,4.50
2023-03-30T04:38:42.872Z,4.95
2023-03-30T04:41:41.815Z,7.18
2023-03-30T04:44:42.853Z,4.82
2023-03-30T04:47:55.394Z,9.15
2023-03-30T04:51:13.742Z,9.10
2023-03-30T04:54:19.108Z,5.78
2023-03-30T04:57:22.245Z,7.25
2023-03-30T05:00:31.917Z,9.95
2023-03-30T05:03:37.312Z,7.50
2023-03-30T05:06:34.940Z,10.05
2023-03-30T05:09:50.873Z,6.50
2023-03-30T05:12:57.914Z,14.88
2023-03-30T05:16:04.178Z,10.23
2023-03-30T05:19:05.737Z,8.80
2023-03-30T05:22:11.136Z,10.77
2023-03-30T05:25:15.363Z,8.77
2023-03-30T05:28:11.869Z,6.53
2023-03-30T05:31:27.929Z,12.75
2023-03-30T05:34:33.700Z,10.02
2023-03-30T05:37:30.725Z,14.90
2023-03-30T05:40:36.484Z,11.48
2023-03-30T05:43:39.109Z,18.30
2023-03-30T05:46:54.651Z,13.65
2023-03-30T05:50:00.052Z,11.38
2023-03-30T05:52:54.598Z,13.85
2023-03-30T05:55:46.769Z,12.82
2023-03-30T05:58:53.525Z,17.13
2023-03-30T06:01:58.897Z,9.27
2023-03-30T06:04:46.313Z,20.15
2023-03-30T06:07:32.980Z,13.07
2023-03-30T06:10:20.685Z,12.30
2023-03-30T06:13:07.870Z,15.88
2023-03-30T06:16:04.874Z,16.77
2023-03-30T06:18:51.387Z,16.50
2023-03-30T06:21:38.233Z,16.73
2023-03-30T06:24:41.053Z,21.08
2023-03-30T06:27:28.424Z,15.50
2023-03-30T06:30:16.019Z,16.83
2023-03-30T06:33:07.965Z,17.48
2023-03-30T06:36:02.667Z,17.67
2023-03-30T06:38:49.647Z,16.77
2023-03-30T06:41:37.587Z,17.02
2023-03-30T06:44:24.267Z,17.25
2023-03-30T06:47:11.086Z,18.77
2023-03-30T06:49:59.188Z,26.52
2023-03-30T06:53:08.223Z,20.48
2023-03-30T06:56:15.316Z,22.13
2023-03-30T06:59:28.470Z,20.05
2023-03-30T07:02:46.272Z,18.50
2023-03-30T07:06:07.299Z,19.48
2023-03-30T07:09:19.908Z,19.83
2023-03-30T07:12:13.806Z,19.85
2023-03-30T07:15:12.380Z,17.73
2023-03-30T07:18:18.079Z,13.50
2023-03-30T07:21:21.326Z,15.45
2023-03-30T07:24:19.528Z,20.77
2023-03-30T07:30:22.181Z,21.83
2023-03-30T07:33:30.960Z,15.18
2023-03-30T07:36:34.430Z,21.80
2023-03-30T07:39:33.974Z,20.42
2023-03-30T07:42:48.697Z,24.08
2023-03-30T07:45:56.203Z,14.40
2023-03-30T07:49:09.358Z,18.55
2023-03-30T07:52:16.325Z,18.55
2023-03-30T07:55:21.622Z,18.67
2023-03-30T07:58:33.375Z,19.55
2023-03-30T08:01:42.400Z,21.80
2023-03-30T08:05:10.529Z,22.13
2023-03-30T08:08:24.212Z,21.00
2023-03-30T08:11:23.939Z,22.70
2023-03-30T08:14:30.366Z,21.65
2023-03-30T08:17:23.504Z,18.50
2023-03-30T08:20:19.826Z,27.83
2023-03-30T08:23:19.530Z,21.42
2023-03-30T08:26:14.205Z,19.02
2023-03-30T08:29:10.538Z,27.70
2023-03-30T08:32:14.504Z,21.20
2023-03-30T08:35:15.905Z,22.65
2023-03-30T08:38:13.773Z,20.98
2023-03-30T08:41:43.902Z,18.63
2023-03-30T08:44:42.088Z,18.48
2023-03-30T08:47:48.843Z,16.15
2023-03-30T08:50:57.892Z,18.50
2023-03-30T08:54:02.776Z,21.88
2023-03-30T08:57:10.860Z,21.63
2023-03-30T09:00:21.702Z,24.08
2023-03-30T09:03:42.326Z,17.73
2023-03-30T09:07:22.593Z,22.15
2023-03-30T09:10:23.118Z,27.48
2023-03-30T09:13:31.738Z,31.52
2023-03-30T09:16:48.268Z,20.15
2023-03-30T09:19:58.095Z,25.63
2023-03-30T09:22:57.628Z,25.25
2023-03-30T09:26:15.854Z,30.40
2023-03-30T09:29:32.881Z,27.02
2023-03-30T09:32:41.731Z,23.15
2023-03-30T09:36:13.629Z,28.58
2023-03-30T09:39:20.453Z,21.23
2023-03-30T09:42:41.583Z,24.17
2023-03-30T09:45:53.376Z,25.70
2023-03-30T09:48:49.493Z,37.00
2023-03-30T09:52:00.395Z,28.00
2023-03-30T09:55:08.493Z,24.13
2023-03-30T09:58:34.203Z,26.73
2023-03-30T10:01:41.528Z,33.88
2023-03-30T10:05:02.766Z,33.95
2023-03-30T10:08:09.324Z,26.40
2023-03-30T10:11:10.551Z,31.42
2023-03-30T10:14:10.096Z,31.58
2023-03-30T10:16:59.021Z,27.15
2023-03-30T10:19:49.389Z,32.55
2023-03-30T10:22:38.426Z,31.65
2023-03-30T10:25:29.454Z,30.05
2023-03-30T10:28:21.923Z,26.88
2023-03-30T10:31:16.558Z,30.48
2023-03-30T10:34:07.989Z,24.25
2023-03-30T10:36:57.607Z,29.77
2023-03-30T10:39:46.976Z,24.30
2023-03-30T10:42:34.488Z,28.38
2023-03-30T10:45:23.434Z,23.35
2023-03-30T10:48:25.383Z,25.73
2023-03-30T10:51:18.891Z,27.02
2023-03-30T10:54:12.506Z,28.85
2023-03-30T10:57:04.001Z,21.30
2023-03-30T11:00:11.024Z,29.52
2023-03-30T11:03:04.177Z,29.92
2023-03-30T11:05:55.369Z,25.38
2023-03-30T11:08:47.119Z,22.25
2023-03-30T11:11:38.631Z,22.75
2023-03-30T11:14:31.857Z,19.38
2023-03-30T11:17:23.705Z,22.80
2023-03-30T11:20:23.575Z,24.52
2023-03-30T11:23:20.748Z,24.65
2023-03-30T11:26:12.482Z,24.65
2023-03-30T11:29:07.047Z,22.40
2023-03-30T11:32:00.684Z,24.00
2023-03-30T11:34:59.553Z,22.63
2023-03-30T11:37:52.053Z,21.60
2023-03-30T11:40:43.970Z,23.75
2023-03-30T11:43:32.532Z,24.98
2023-03-30T11:46:28.209Z,25.23
2023-03-30T11:49:26.394Z,18.63
2023-03-30T11:52:24.698Z,21.50
2023-03-30T11:55:28.712Z,21.70
2023-03-30T11:58:26.526Z,27.38
2023-03-30T12:01:33.213Z,25.38
2023-03-30T12:04:27.667Z,21.90
2023-03-30T12:07:27.922Z,25.45
2023-03-30T12:10:19.898Z,23.23
2023-03-30T12:13:06.854Z,22.25
2023-03-30T12:15:59.694Z,28.73
2023-03-30T12:19:06.026Z,34.28
2023-03-30T12:21:56.371Z,24.83
2023-03-30T12:24:50.707Z,23.20
2023-03-30T12:27:38.713Z,28.50
2023-03-30T12:30:29.580Z,29.42
2023-03-30T12:33:20.221Z,23.67
2023-03-30T12:36:25.973Z,24.45
2023-03-30T12:39:21.759Z,21.70
2023-03-30T12:42:11.701Z,23.98
2023-03-30T12:45:21.100Z,22.80
2023-03-30T12:48:24.856Z,24.60
2023-03-30T12:51:19.292Z,23.33
2023-03-30T12:54:39.007Z,21.33
2023-03-30T12:57:40.903Z,31.08
2023-03-30T13:01:09.701Z,28.25
2023-03-30T13:04:00.137Z,29.80
2023-03-30T13:06:53.948Z,29.38
2023-03-30T13:09:55.127Z,30.85
2023-03-30T13:12:43.199Z,25.00
2023-03-30T13:15:48.641Z,32.38
2023-03-30T13:18:41.981Z,29.25
2023-03-30T13:21:29.024Z,27.50
2023-03-30T13:24:41.227Z,28.58
2023-03-30T13:27:31.771Z,24.85
2023-03-30T13:30:18.688Z,25.40
2023-03-30T13:33:12.721Z,18.33
2023-03-30T13:36:06.677Z,20.75
2023-03-30T13:39:05.065Z,26.08
2023-03-30T13:42:04.186Z,25.63
2023-03-30T13:45:08.502Z,21.25
2023-03-30T13:48:05.082Z,26.00
2023-03-30T13:50:58.250Z,26.58
2023-03-30T13:54:01.040Z,19.98
2023-03-30T13:56:51.115Z,19.45
2023-03-30T13:59:44.066Z,26.42
2023-03-30T14:02:31.590Z,23.40
2023-03-30T14:05:21.592Z,23.17
2023-03-30T14:08:11.251Z,20.58
2023-03-30T14:10:57.735Z,20.35
2023-03-30T14:13:46.082Z,19.50
2023-03-30T14:16:36.715Z,18.75
2023-03-30T14:19:27.353Z,22.30
2023-03-30T14:22:20.221Z,16.58
2023-03-30T14:25:22.148Z,18.88
2023-03-30T14:28:14.647Z,19.30
2023-03-30T14:31:04.800Z,22.80
2023-03-30T14:33:52.924Z,29.33
2023-03-30T14:36:39.406Z,18.02
2023-03-30T14:39:26.360Z,18.42
2023-03-30T14:42:18.623Z,18.58
2023-03-30T14:45:09.214Z,18.45
2023-03-30T14:47:56.590Z,24.05
2023-03-30T14:50:46.630Z,16.25
2023-03-30T14:53:33.274Z,17.38
2023-03-30T14:56:20.797Z,16.92
2023-03-30T14:59:08.417Z,15.73
2023-03-30T15:01:56.344Z,16.40
2023-03-30T15:04:42.643Z,17.20
2023-03-30T15:07:32.871Z,17.40
2023-03-30T15:10:26.559Z,21.77
2023-03-30T15:13:21.606Z,16.55
2023-03-30T15:16:08.738Z,17.63
2023-03-30T15:19:02.578Z,17.83
2023-03-30T15:21:55.007Z,22.70
2023-03-30T15:24:43.424Z,22.85
2023-03-30T15:27:30.984Z,20.65
2023-03-30T15:30:29.529Z,17.25
2023-03-30T15:33:25.377Z,19.75
2023-03-30T15:36:14.079Z,21.83
2023-03-30T15:39:01.218Z,20.30
2023-03-30T15:41:50.740Z,16.83
2023-03-30T15:44:39.059Z,20.17
2023-03-30T15:47:25.329Z,19.00
2023-03-30T15:50:14.342Z,16.60
2023-03-30T15:53:02.445Z,22.88
2023-03-30T15:55:53.024Z,18.20
2023-03-30T15:58:41.516Z,9.48
2023-03-30T16:01:48.568Z,15.45
2023-03-30T16:04:35.669Z,15.02
2023-03-30T16:07:25.268Z,12.73
2023-03-30T16:10:14.636Z,21.05
2023-03-30T16:13:02.447Z,13.73
2023-03-30T16:15:52.250Z,13.10
2023-03-30T16:18:41.233Z,11.63
2023-03-30T16:21:29.406Z,17.85
2023-03-30T16:24:16.577Z,17.73
2023-03-30T16:27:05.126Z,14.38
2023-03-30T16:29:51.372Z,16.50
2023-03-30T16:32:39.966Z,15.35
2023-03-30T16:35:31.532Z,13.93
2023-03-30T16:38:19.483Z,18.80
2023-03-30T16:41:06.915Z,13.38
2023-03-30T16:43:53.349Z,14.90
2023-03-30T16:46:42.452Z,14.07
2023-03-30T16:49:30.659Z,15.35
2023-03-30T16:52:16.625Z,15.13
2023-03-30T16:55:02.854Z,17.80
2023-03-30T16:57:49.737Z,20.33
2023-03-30T17:00:41.082Z,11.38
2023-03-30T17:03:28.785Z,20.42
2023-03-30T17:06:17.024Z,21.48
2023-03-30T17:09:03.812Z,11.18
2023-03-30T17:11:50.944Z,19.60
2023-03-30T17:14:37.573Z,19.35
2023-03-30T17:17:23.946Z,16.13
2023-03-30T17:20:31.519Z,16.55
2023-03-30T17:23:19.860Z,19.00
2023-03-30T17:26:07.690Z,23.75
2023-03-30T17:28:54.389Z,20.77
2023-03-30T17:31:45.324Z,22.73
2023-03-30T17:34:32.231Z,20.40
2023-03-30T17:37:19.865Z,20.13
2023-03-30T17:40:16.460Z,18.92
2023-03-30T17:43:02.953Z,15.65
2023-03-30T17:45:50.067Z,20.83
2023-03-30T17:48:36.971Z,18.48
2023-03-30T17:51:23.106Z,15.18
2023-03-30T17:54:09.749Z,12.65
2023-03-30T17:56:57.785Z,21.13
2023-03-30T17:59:51.176Z,20.85
2023-03-30T18:02:38.389Z,20.13
2023-03-30T18:05:27.508Z,20.52
2023-03-30T18:08:17.469Z,20.80
2023-03-30T18:11:05.774Z,28.02
2023-03-30T18:13:54.755Z,19.05
2023-03-30T18:16:43.794Z,21.67
2023-03-30T18:19:30.419Z,21.42
2023-03-30T18:22:17.253Z,23.65
2023-03-30T18:25:04.615Z,30.45
2023-03-30T18:27:51.918Z,29.17
2023-03-30T18:30:40.337Z,22.63
2023-03-30T18:33:27.129Z,20.40
2023-03-30T18:36:15.042Z,21.05
2023-03-30T18:39:02.561Z,20.83
2023-03-30T18:41:54.950Z,25.02
2023-03-30T18:44:45.759Z,19.30
2023-03-30T18:47:34.002Z,21.55
2023-03-30T18:50:23.695Z,25.90
2023-03-30T18:53:11.587Z,16.17
2023-03-30T18:56:00.719Z,30.55
2023-03-30T18:58:47.789Z,22.02
2023-03-30T19:01:34.919Z,25.95
2023-03-30T19:04:22.781Z,21.27
2023-03-30T19:07:11.053Z,20.77
2023-03-30T19:09:57.337Z,20.90
2023-03-30T19:12:44.179Z,23.25
2023-03-30T19:15:32.995Z,26.45
2023-03-30T19:18:20.189Z,18.92
2023-03-30T19:21:10.832Z,26.42
2023-03-30T19:26:43.701Z,21.77
2023-03-30T19:29:30.146Z,25.33
2023-03-30T19:32:16.723Z,27.23
2023-03-30T19:35:03.357Z,19.88
2023-03-30T19:37:51.461Z,25.75
2023-03-30T19:40:38.840Z,33.60
2023-03-30T19:43:25.525Z,22.42
2023-03-30T19:46:11.489Z,35.17
2023-03-30T19:48:58.191Z,20.75
2023-03-30T19:51:44.473Z,21.10
2023-03-30T19:54:32.366Z,21.35
2023-03-30T19:57:19.116Z,27.83
2023-03-30T20:00:12.550Z,21.77
2023-03-30T20:02:59.230Z,20.05
2023-03-30T20:05:50.366Z,19.52
2023-03-30T20:08:38.009Z,21.08
2023-03-30T20:11:26.094Z,23.60
2023-03-30T20:14:12.966Z,21.83
2023-03-30T20:17:00.354Z,22.55
2023-03-30T20:19:46.753Z,19.67
2023-03-30T20:22:33.477Z,21.55
2023-03-30T20:25:22.232Z,25.38
2023-03-30T20:28:09.882Z,20.52
2023-03-30T20:30:56.959Z,28.92
2023-03-30T20:33:43.720Z,16.58
2023-03-30T20:36:33.088Z,21.48
2023-03-30T20:39:22.208Z,25.70
2023-03-30T20:42:09.405Z,26.45
2023-03-30T20:44:57.698Z,18.20
2023-03-30T20:47:50.018Z,15.38
2023-03-30T20:50:37.036Z,17.83
2023-03-30T20:53:23.841Z,24.65
2023-03-30T20:56:11.805Z,19.33
2023-03-30T20:58:58.517Z,14.07
2023-03-30T21:01:47.098Z,10.38
2023-03-30T21:04:34.187Z,21.83
2023-03-30T21:07:24.520Z,23.52
2023-03-30T21:10:11.221Z,30.50
2023-03-30T21:12:57.701Z,18.30
2023-03-30T21:15:44.093Z,24.25
2023-03-30T21:18:31.893Z,23.92
2023-03-30T21:21:18.107Z,21.27
2023-03-30T21:24:05.719Z,22.02
2023-03-30T21:26:52.291Z,22.15
2023-03-30T21:29:38.726Z,23.05
2023-03-30T21:32:25.405Z,19.02
2023-03-30T21:35:12.885Z,26.10
2023-03-30T21:38:00.100Z,20.35
2023-03-30T21:41:00.974Z,28.48
2023-03-30T21:43:48.146Z,27.85
2023-03-30T21:46:34.355Z,20.15
2023-03-30T21:49:20.846Z,17.65
2023-03-30T21:52:08.630Z,19.98
2023-03-30T21:54:54.907Z,16.38
2023-03-30T21:57:41.149Z,24.88
2023-03-30T22:00:27.319Z,26.52
2023-03-30T22:03:13.832Z,23.38
2023-03-30T22:06:01.721Z,20.20
2023-03-30T22:08:49.641Z,24.10
2023-03-30T22:11:36.139Z,23.20
2023-03-30T22:14:22.813Z,23.98
2023-03-30T22:17:11.320Z,21.27
2023-03-30T22:19:58.386Z,19.60
2023-03-30T22:22:45.465Z,18.90
2023-03-30T22:25:33.162Z,19.77
2023-03-30T22:28:19.655Z,27.75
2023-03-30T22:31:08.096Z,21.80
2023-03-30T22:33:54.912Z,18.35
2023-03-30T22:36:42.257Z,19.60
2023-03-30T22:39:28.882Z,28.80
2023-03-30T22:42:16.822Z,20.05
2023-03-30T22:45:03.544Z,19.02
2023-03-30T22:47:50.205Z,23.83
2023-03-30T22:50:37.049Z,20.65
2023-03-30T22:53:23.561Z,22.90
2023-03-30T22:56:09.896Z,27.23
2023-03-30T22:58:58.339Z,19.73
2023-03-30T23:01:44.467Z,20.27
2023-03-30T23:04:30.971Z,26.58
2023-03-30T23:07:17.442Z,24.60
2023-03-30T23:10:04.131Z,25.75
2023-03-30T23:12:50.937Z,24.88
2023-03-30T23:15:38.511Z,18.23
2023-03-30T23:18:24.797Z,17.95
2023-03-30T23:21:13.834Z,22.48
2023-03-30T23:24:00.385Z,21.40
2023-03-30T23:26:47.621Z,23.70
2023-03-30T23:29:34.049Z,17.50
2023-03-30T23:32:21.918Z,21.05
2023-03-30T23:35:08.890Z,15.02
2023-03-30T23:37:55.178Z,16.05
2023-03-30T23:40:41.803Z,15.15
2023-03-30T23:43:28.742Z,16.92
2023-03-30T23:46:15.597Z,20.10
2023-03-30T23:49:04.233Z,14.82
2023-03-30T23:51:50.525Z,19.50
2023-03-30T23:54:40.838Z,20.15
2023-03-30T23:57:27.282Z,21.00
